Aérodrome :
LOGIN :

S'inscrire | Disclaimer

   EN    FR    IT 

 










Légende :    VFR   VFR Marginal   IFR   IFR Intensif   IFR Très Intensif
Visi : 
Plafond : 
>= 8 km
>= 3000ft
5 à 8 km
1000 à 3000 ft
1500m à 5 km
500 à 1000 ft
800 à 1500m
200 à 500 ft
< 800m
< 200 ft
Symboles :   Orages  Brouillard  Fortes neiges  Fortes précipitations  Vent > 20 kt
SIGMETs :   Divers  Orages  Givrage  Turbulence  Onde Orograph.  Cendres Volcan.






- Altitude de l'aérodrome : 297 ft
- Code IATA : BBU


LRBS - Bucarest - Baneasa Aurel Vlaicu

DERNIER METAR :
  • 240830Z 07004KT 360V100 CAVOK 21/15 Q1012 NOSIG

METARs EXPIRÉS :
  • 240800Z 03003KT 340V100 CAVOK 20/15 Q1012 NOSIG
  • 240730Z VRB02KT CAVOK 18/14 Q1012 NOSIG
  • 240700Z VRB02KT CAVOK 17/13 Q1012 NOSIG
  • 240630Z VRB01KT CAVOK 16/13 Q1012 NOSIG
  • 240600Z VRB01KT CAVOK 16/12 Q1012 NOSIG

TAF TAF LRBS
Valide du 24 à 06h jusqu'au 25 à 06h UTC


240500Z 2406/2506 VRB04KT CAVOK
PROB30
TEMPO 2416/2419 SCT045CB



MET'MAP, la Météo Aéronautique d'un coup d'oeil ! - Copyright ORBIFLY Décembre 2007 - Disclaimer

ORBIFLY MET'MAP TEAM :

Programmation & Développement : Alexandra Zaïnal
Sur une idée originale de : Baudouin d'Aumeries
Assistance à la programmation : Marc-Olivier Méhu
Soutien technique & logistique : Manuel Goepfert

Contact : metmap@orbifly.com




SOURCES & CREDITS :

   NOAA